Wednesday, September 17, 2014
23:44 UTC
  |  Log In   |  Register Free
Airport Search:

South Alabama Regional At Bill Benton Field Airport
(79J)

South Alabama Regional At Bill Benton Field Airport Diagram
No Airport Diagram Available

FAA data valid effective July 24, 2014 until September 18, 2014 (unless otherwise noted).

 
 
 
 
 
 
 
 
 
 
 
 
 
 

Current Aviation Weather for South Alabama Regional At Bill Benton Field Airport (79J)

METAR data is unavailable for 79J. The nearest METAR location is at KEDN (25.2 nm SE from 79J).

The most recent METAR observation for KEDN was updated at: 2314
METAR Summary (Translated METAR)
KEDN
172255Z AUTO 00000KT 10SM CLR 26/23 A2988 RMK AO2
(25.2 nm SE from 79J)
KSXS
172256Z AUTO 32003KT 10SM CLR 30/21 A2991 RMK AO2 SLP126 T02970211
(28 nm NE from 79J)
TAF
No TAF information found within 50 nm of KLOR
  Airport Weather Conditions for 79J

Current weather conditions are
not available for 79J


The nearest NOAA weather station
is at CEW, (32.5 nm SW from 79J)
  
 Current Weather at CEW
84° F
Fair
North winds at 3.5 mph
CEW NOAA Radar

Pressure: 29.89 in
Humidity: 70%
Wind: North at 3.5 MPH (3 KT)
Dew Point: 73.0°F
Visibility: 10.00 mi


Airport Weather Forecast for 79J

Translated METAR and TAF for KLOR
Translated METAR for KLOR (2338 UTC 17 September 2014)
found at http://aviationweather.gov/adds/metars/
 
METAR text: KLOR 172253Z AUTO 10SM CLR 31/19 A2987 RMK AO2 SLP110 T03060194 TSNO $
Conditions at: KLOR (LOWE AHP/FT. RUC, AL, US) observed 2253 UTC 17 September 2014
Temperature: 30.6°C (87°F)
Dewpoint: 19.4°C (67°F) [RH = 51%]
Pressure (altimeter): 29.87 inches Hg (1011.6 mb)
[Sea-level pressure: 1011.0 mb]
Winds: missing
Visibility: 10 or more miles (16+ km)
Ceiling: at least 12,000 feet AGL
Clouds: sky clear below 12,000 feet AGL
Weather:
SOME DATA ABOVE MAY BE INACCURATE!!!
"$" is an indication the sensor requires maintenance
Translated TAF for KLOR

There is no translated TAF available for this airport

Find All Airport Services Find A Hotel Find A Rental Car Find A Golf Course Find A Restaurant $100 Hamburger



FBO's on the Field
FBO Company Facility Photos Services Transportation Aviation Fuel Prices: Prices include tax
Catering Weather Repair Courtesy Rental Type 100LL JetA JetA+ MOGAS 8087
 
South Alabama Regional Airport

This FBO has not yet been rated
FS:Phillips66
Last Updated: Sep-04
Login to update fuel prices
SS:
Contact South Alabama Regional AirportMore FBO Information
 
Add another FBO Facility Photos Catering Weather Repair Courtesy Rental Type 100LL JetA JetA+ MOGAS 8087
Services Transportation Aviation Fuel Prices: Prices include tax


model-print
model-print
model-print
model-print